Time;durP1;ratioP1;P1;durP2;ratioP2;P2;SDS_P1;SDS_P2;PMS_P1;PMS_P2;Temp;Humidity;BMP_temperature;BMP_pressure;BME280_temperature;BME280_humidity;BME280_pressure;Samples;Min_cycle;Max_cycle;Signal;HPM_P1;HPM_P2
2021/05/16 00:00:25;;;;;;;16.60;4.95;;;10.80;94.40;;;;;;4986757;28;20141;-70
2021/05/16 00:02:52;;;;;;;14.25;5.68;;;10.80;94.50;;;;;;4989378;28;20117;-70
2021/05/16 00:05:19;;;;;;;13.82;4.53;;;10.80;94.50;;;;;;4991965;28;20618;-69
2021/05/16 00:07:44;;;;;;;16.73;4.75;;;10.80;94.50;;;;;;4989149;28;20095;-70
2021/05/16 00:10:14;;;;;;;10.50;4.13;;;10.80;94.50;;;;;;4991574;28;20468;-69
2021/05/16 00:12:40;;;;;;;17.08;4.25;;;10.80;94.50;;;;;;4981926;28;20113;-69
2021/05/16 00:15:09;;;;;;;9.10;3.75;;;10.80;94.50;;;;;;4992880;28;20428;-70
2021/05/16 00:17:35;;;;;;;16.80;5.35;;;10.80;94.50;;;;;;4987837;28;20059;-69
2021/05/16 00:20:02;;;;;;;24.40;6.78;;;10.80;94.50;;;;;;4988332;28;20506;-69
2021/05/16 00:22:27;;;;;;;12.73;4.25;;;10.80;94.60;;;;;;4992575;28;20061;-69
2021/05/16 00:24:53;;;;;;;17.65;4.53;;;10.80;94.60;;;;;;4975836;28;20042;-69
2021/05/16 00:27:18;;;;;;;15.07;4.38;;;10.90;94.60;;;;;;4989654;28;20023;-69
2021/05/16 00:29:44;;;;;;;15.02;4.35;;;10.90;94.60;;;;;;4988657;28;20022;-69
2021/05/16 00:32:09;;;;;;;13.80;4.13;;;10.90;94.60;;;;;;4980445;28;20078;-69
2021/05/16 00:34:35;;;;;;;17.13;4.47;;;10.90;94.60;;;;;;4986799;28;20392;-69
2021/05/16 00:37:00;;;;;;;17.98;3.75;;;10.90;94.60;;;;;;4989440;28;20079;-69
2021/05/16 00:39:26;;;;;;;18.17;3.65;;;10.90;94.60;;;;;;4979959;28;20031;-69
2021/05/16 00:41:52;;;;;;;17.80;3.97;;;11.00;94.50;;;;;;4987928;28;20480;-69
2021/05/16 00:44:19;;;;;;;14.75;3.88;;;10.90;94.50;;;;;;4990168;28;20483;-69
2021/05/16 00:46:45;;;;;;;14.38;4.38;;;11.00;94.50;;;;;;4980476;28;20027;-69
2021/05/16 00:49:11;;;;;;;16.20;3.90;;;11.00;94.50;;;;;;4986988;28;20037;-69
2021/05/16 00:51:37;;;;;;;16.65;2.88;;;11.00;94.50;;;;;;4990510;28;20033;-69
2021/05/16 00:54:07;;;;;;;19.50;3.25;;;11.00;94.50;;;;;;4990195;28;20022;-70
2021/05/16 00:56:33;;;;;;;14.90;2.95;;;11.00;94.50;;;;;;4986805;28;20096;-70
2021/05/16 00:58:59;;;;;;;17.45;2.85;;;11.00;94.40;;;;;;4987368;28;20035;-70
2021/05/16 01:01:26;;;;;;;14.02;3.63;;;11.00;94.40;;;;;;4990328;28;20058;-70
2021/05/16 01:03:52;;;;;;;17.88;3.35;;;11.00;94.40;;;;;;4989113;28;20054;-69
2021/05/16 01:06:18;;;;;;;16.50;3.75;;;11.00;94.40;;;;;;4990458;28;20030;-69
2021/05/16 01:08:48;;;;;;;22.15;4.47;;;11.00;94.40;;;;;;4989942;28;20022;-70
2021/05/16 01:11:17;;;;;;;27.70;5.13;;;11.00;94.40;;;;;;4989376;28;20019;-70
2021/05/16 01:13:46;;;;;;;21.67;4.25;;;10.90;94.30;;;;;;4989287;28;20508;-70
2021/05/16 01:16:11;;;;;;;19.90;4.55;;;10.90;94.30;;;;;;4972417;28;20029;-70
2021/05/16 01:18:37;;;;;;;24.45;4.60;;;10.90;94.30;;;;;;4983756;28;20109;-70
2021/05/16 01:21:03;;;;;;;16.13;4.38;;;10.90;94.30;;;;;;4983244;28;20030;-70
2021/05/16 01:23:35;;;;;;;15.95;4.00;;;10.80;94.30;;;;;;4991474;28;20044;-70
2021/05/16 01:26:01;;;;;;;15.90;4.18;;;10.90;94.30;;;;;;4980639;28;20057;-70
2021/05/16 01:28:27;;;;;;;21.05;4.85;;;10.80;94.20;;;;;;4984552;28;20034;-70
2021/05/16 01:30:53;;;;;;;18.92;3.97;;;10.80;94.20;;;;;;4984292;28;20051;-70
2021/05/16 01:33:20;;;;;;;27.08;4.13;;;10.80;94.20;;;;;;4988621;28;20476;-70
2021/05/16 01:35:46;;;;;;;17.17;3.85;;;10.80;94.20;;;;;;4989994;28;20105;-70
2021/05/16 01:38:13;;;;;;;22.05;3.70;;;10.80;94.20;;;;;;4987194;28;20110;-70
2021/05/16 01:40:40;;;;;;;17.80;3.70;;;10.80;94.20;;;;;;4984992;28;20483;-70
2021/05/16 01:43:11;;;;;;;23.45;3.83;;;10.80;94.20;;;;;;4982299;28;20038;-69
2021/05/16 01:45:38;;;;;;;26.77;3.92;;;10.70;94.20;;;;;;4978243;28;20035;-70
2021/05/16 01:48:04;;;;;;;18.90;4.25;;;10.70;94.30;;;;;;4985035;28;20042;-70
2021/05/16 01:50:32;;;;;;;18.30;3.55;;;10.70;94.30;;;;;;4983086;28;20038;-70
2021/05/16 01:53:00;;;;;;;16.48;3.47;;;10.70;94.30;;;;;;4982156;28;20464;-70
2021/05/16 01:55:26;;;;;;;20.05;3.58;;;10.70;94.30;;;;;;4986078;28;20115;-70
2021/05/16 01:57:52;;;;;;;19.50;3.78;;;10.70;94.30;;;;;;4988328;28;20043;-70
2021/05/16 02:00:27;;;;;;;22.25;4.00;;;10.60;94.30;;;;;;4988080;28;20034;-70
2021/05/16 02:02:53;;;;;;;27.23;4.38;;;10.70;94.30;;;;;;4991275;28;20480;-70
2021/05/16 02:05:19;;;;;;;21.17;4.03;;;10.60;94.30;;;;;;4989635;28;20030;-70
2021/05/16 02:07:47;;;;;;;19.60;3.95;;;10.70;94.30;;;;;;4982593;28;20033;-70
2021/05/16 02:10:12;;;;;;;20.33;4.15;;;10.60;94.30;;;;;;4980632;28;20372;-70
2021/05/16 02:12:38;;;;;;;19.30;4.65;;;10.70;94.30;;;;;;4977620;28;20029;-70
2021/05/16 02:15:04;;;;;;;24.15;4.22;;;10.60;94.30;;;;;;4976915;28;20033;-70
2021/05/16 02:17:30;;;;;;;23.98;5.03;;;10.60;94.30;;;;;;4976594;28;20038;-70
2021/05/16 02:19:56;;;;;;;27.08;4.80;;;10.60;94.30;;;;;;4988521;28;20357;-70
2021/05/16 02:22:21;;;;;;;19.70;3.90;;;10.70;94.40;;;;;;4979693;28;20480;-69
2021/05/16 02:24:47;;;;;;;26.38;4.70;;;10.70;94.40;;;;;;4987969;28;20496;-70
2021/05/16 02:27:12;;;;;;;21.65;3.95;;;10.70;94.40;;;;;;4976730;28;20114;-70
2021/05/16 02:29:38;;;;;;;24.27;5.20;;;10.70;94.30;;;;;;4984662;28;20027;-70
2021/05/16 02:32:06;;;;;;;20.60;4.55;;;10.60;94.30;;;;;;4990770;28;20051;-70
2021/05/16 02:34:32;;;;;;;28.30;4.70;;;10.70;94.30;;;;;;4989288;28;20101;-70
2021/05/16 02:36:58;;;;;;;26.05;4.95;;;10.70;94.60;;;;;;4972845;28;20115;-70
2021/05/16 02:39:23;;;;;;;22.10;5.00;;;10.70;94.40;;;;;;4990704;28;20538;-70
2021/05/16 02:41:49;;;;;;;28.30;5.03;;;10.70;94.30;;;;;;4988681;28;20045;-70
2021/05/16 02:44:15;;;;;;;26.10;4.55;;;10.70;94.40;;;;;;4986597;28;20027;-70
2021/05/16 02:46:41;;;;;;;18.98;4.13;;;10.70;94.30;;;;;;4978805;28;20060;-69
2021/05/16 02:49:06;;;;;;;21.85;4.15;;;10.70;94.30;;;;;;4983544;28;20054;-69
2021/05/16 02:51:32;;;;;;;21.48;4.20;;;10.70;94.30;;;;;;4976430;28;20027;-69
2021/05/16 02:53:58;;;;;;;16.67;4.00;;;10.70;94.30;;;;;;4983525;28;20038;-69
2021/05/16 02:56:23;;;;;;;26.65;4.70;;;10.70;94.30;;;;;;4977647;28;20065;-69
2021/05/16 02:58:49;;;;;;;25.63;5.85;;;10.70;94.20;;;;;;4986435;28;20423;-69
2021/05/16 03:01:15;;;;;;;20.88;5.07;;;10.70;94.30;;;;;;4979439;28;20373;-69
2021/05/16 03:03:40;;;;;;;24.65;5.90;;;10.70;94.20;;;;;;4982107;28;20030;-69
2021/05/16 03:06:07;;;;;;;19.52;5.05;;;10.70;94.20;;;;;;4985469;28;20039;-69
2021/05/16 03:08:32;;;;;;;30.73;5.60;;;10.70;94.20;;;;;;4987383;28;20262;-69
2021/05/16 03:10:58;;;;;;;23.67;5.32;;;10.70;94.20;;;;;;4989714;28;20118;-69
2021/05/16 03:13:24;;;;;;;27.45;5.82;;;10.70;94.20;;;;;;4990239;28;20026;-69
2021/05/16 03:15:49;;;;;;;27.52;6.07;;;10.70;94.20;;;;;;4984633;28;20498;-70
2021/05/16 03:18:15;;;;;;;24.25;6.20;;;10.70;94.20;;;;;;4983849;28;20034;-69
2021/05/16 03:20:41;;;;;;;30.88;6.78;;;10.60;94.10;;;;;;4991224;28;20026;-69
2021/05/16 03:23:07;;;;;;;30.92;5.68;;;10.60;94.10;;;;;;4991470;28;20484;-70
2021/05/16 03:25:35;;;;;;;33.75;7.28;;;10.70;94.20;;;;;;4987814;28;20105;-70
2021/05/16 03:28:02;;;;;;;27.15;6.53;;;10.60;94.10;;;;;;4990465;28;20041;-69
2021/05/16 03:30:28;;;;;;;26.08;7.30;;;10.70;94.10;;;;;;4986500;28;20026;-70
2021/05/16 03:32:53;;;;;;;26.20;7.47;;;10.70;94.10;;;;;;4978848;28;20037;-69
2021/05/16 03:35:19;;;;;;;32.53;8.32;;;10.60;94.10;;;;;;4991962;28;20038;-70
2021/05/16 03:37:45;;;;;;;31.80;8.82;;;10.60;94.10;;;;;;4987593;28;20033;-69
2021/05/16 03:40:11;;;;;;;30.75;7.32;;;10.60;94.00;;;;;;4990991;28;20022;-69
2021/05/16 03:42:37;;;;;;;28.15;9.70;;;10.70;94.10;;;;;;4984988;28;20027;-69
2021/05/16 03:45:05;;;;;;;31.02;8.63;;;10.60;94.00;;;;;;4992176;28;20030;-69
2021/05/16 03:47:30;;;;;;;25.40;8.25;;;10.60;94.00;;;;;;4981444;28;20034;-70
2021/05/16 03:49:56;;;;;;;34.28;9.38;;;10.60;94.00;;;;;;4992512;28;20038;-69
2021/05/16 03:52:22;;;;;;;38.95;8.63;;;10.60;94.00;;;;;;4990623;28;20030;-69
2021/05/16 03:54:48;;;;;;;29.80;9.02;;;10.70;94.00;;;;;;4991245;28;20078;-69
2021/05/16 03:57:15;;;;;;;35.85;9.18;;;10.60;94.00;;;;;;4978206;28;20014;-69
2021/05/16 03:59:41;;;;;;;30.80;8.55;;;10.70;94.00;;;;;;4991530;28;20034;-70
2021/05/16 04:02:07;;;;;;;33.65;8.75;;;10.70;94.00;;;;;;4983954;28;20106;-69
2021/05/16 04:04:33;;;;;;;23.88;7.40;;;10.60;94.00;;;;;;4991388;28;20101;-70
2021/05/16 04:06:58;;;;;;;33.05;8.57;;;10.60;93.90;;;;;;4980702;28;20026;-70
2021/05/16 04:09:24;;;;;;;34.33;8.70;;;10.60;93.90;;;;;;4989543;28;20642;-70
2021/05/16 04:11:49;;;;;;;36.17;8.70;;;10.60;93.90;;;;;;4981030;28;20062;-70
2021/05/16 04:14:16;;;;;;;25.67;7.55;;;10.70;94.00;;;;;;4988712;28;20388;-70
2021/05/16 04:16:42;;;;;;;37.00;7.88;;;10.70;93.90;;;;;;4989648;28;20018;-69
2021/05/16 04:19:07;;;;;;;32.13;8.27;;;10.70;93.90;;;;;;4987791;28;20092;-69
2021/05/16 04:21:33;;;;;;;23.85;7.63;;;10.70;93.90;;;;;;4991456;28;20476;-70
2021/05/16 04:23:59;;;;;;;49.30;8.90;;;10.70;93.90;;;;;;4980488;28;20035;-70
2021/05/16 04:26:24;;;;;;;30.15;8.77;;;10.70;93.90;;;;;;4971846;28;20499;-70
2021/05/16 04:28:50;;;;;;;35.08;8.68;;;10.70;93.90;;;;;;4972102;28;20110;-69
2021/05/16 04:31:15;;;;;;;31.08;8.23;;;10.70;93.90;;;;;;4985008;28;20081;-70
2021/05/16 04:33:41;;;;;;;33.45;9.70;;;10.70;93.90;;;;;;4980299;28;20034;-70
2021/05/16 04:36:06;;;;;;;30.42;8.57;;;10.70;93.90;;;;;;4989722;28;20018;-70
2021/05/16 04:38:32;;;;;;;32.25;9.25;;;10.70;93.90;;;;;;4989432;28;20484;-70
2021/05/16 04:40:57;;;;;;;38.05;10.98;;;10.70;93.90;;;;;;4992391;28;20106;-69
2021/05/16 04:43:23;;;;;;;30.52;9.25;;;10.70;93.80;;;;;;4988076;28;20440;-70
2021/05/16 04:45:49;;;;;;;29.80;8.90;;;10.80;93.80;;;;;;4979011;28;20043;-70
2021/05/16 04:48:14;;;;;;;29.13;9.70;;;10.80;93.80;;;;;;4987480;28;20030;-70
2021/05/16 04:50:40;;;;;;;34.25;9.77;;;10.80;93.80;;;;;;5009333;28;20035;-70
2021/05/16 04:53:05;;;;;;;25.55;8.63;;;10.80;93.80;;;;;;4989372;28;20023;-70
2021/05/16 04:55:31;;;;;;;42.30;9.70;;;10.80;93.80;;;;;;4986853;28;20072;-70
2021/05/16 04:57:57;;;;;;;30.02;10.45;;;10.80;93.80;;;;;;4985027;28;20041;-70
2021/05/16 05:00:23;;;;;;;33.10;9.07;;;10.80;93.70;;;;;;4991457;28;20075;-69
2021/05/16 05:02:48;;;;;;;27.58;9.38;;;10.90;93.70;;;;;;4980872;28;20136;-70
2021/05/16 05:05:14;;;;;;;27.92;9.77;;;10.90;93.70;;;;;;4991881;28;20026;-70
2021/05/16 05:07:40;;;;;;;27.67;9.45;;;10.90;93.60;;;;;;4977946;28;20030;-70
2021/05/16 05:10:07;;;;;;;32.85;9.43;;;11.00;93.60;;;;;;5002077;28;20020;-69
2021/05/16 05:12:33;;;;;;;33.58;9.57;;;11.00;93.60;;;;;;4986279;28;20050;-69
2021/05/16 05:14:58;;;;;;;44.28;10.57;;;11.00;93.40;;;;;;4990657;28;20115;-70
2021/05/16 05:17:24;;;;;;;32.47;8.70;;;11.00;93.40;;;;;;4985008;28;20027;-69
2021/05/16 05:19:50;;;;;;;26.65;9.43;;;11.00;93.40;;;;;;4984383;28;20527;-69
2021/05/16 05:22:15;;;;;;;38.72;10.00;;;11.00;93.30;;;;;;4987931;28;20733;-69
2021/05/16 05:24:41;;;;;;;28.38;10.05;;;11.00;93.30;;;;;;4997035;28;20037;-69
2021/05/16 05:27:07;;;;;;;29.63;9.90;;;11.00;93.30;;;;;;4984206;28;20037;-69
2021/05/16 05:29:32;;;;;;;34.13;11.82;;;11.00;93.30;;;;;;4986240;28;20038;-70
2021/05/16 05:31:58;;;;;;;32.88;11.25;;;11.00;93.30;;;;;;4986538;28;20045;-70
2021/05/16 05:34:26;;;;;;;34.40;11.93;;;11.00;93.20;;;;;;4989053;28;20027;-69
2021/05/16 05:36:53;;;;;;;35.47;12.50;;;11.00;93.20;;;;;;4988734;28;20022;-69
2021/05/16 05:39:18;;;;;;;41.63;12.57;;;11.10;93.20;;;;;;4973712;28;20035;-69
2021/05/16 05:41:45;;;;;;;43.47;12.23;;;11.10;93.00;;;;;;4989384;28;20391;-69
2021/05/16 05:44:11;;;;;;;34.97;10.57;;;11.10;93.00;;;;;;4987026;28;20505;-70
2021/05/16 05:46:36;;;;;;;31.27;10.70;;;11.10;92.90;;;;;;4990906;28;20034;-70
2021/05/16 05:49:03;;;;;;;43.85;11.70;;;11.10;92.90;;;;;;4987273;28;20365;-69
2021/05/16 05:51:28;;;;;;;32.67;10.02;;;11.10;93.00;;;;;;4989560;28;20051;-69
2021/05/16 05:53:54;;;;;;;28.45;10.57;;;11.10;92.90;;;;;;4984535;28;20105;-70
2021/05/16 05:56:20;;;;;;;37.97;10.18;;;11.20;92.90;;;;;;4990966;28;20484;-70
2021/05/16 05:58:46;;;;;;;35.50;10.27;;;11.20;92.90;;;;;;4979216;28;20029;-69
2021/05/16 06:01:12;;;;;;;33.20;9.50;;;11.20;92.80;;;;;;4976952;28;20088;-69
2021/05/16 06:03:38;;;;;;;32.00;9.32;;;11.30;92.80;;;;;;4977583;28;20038;-70
2021/05/16 06:06:04;;;;;;;31.05;8.48;;;11.30;92.60;;;;;;4989456;28;20058;-69
2021/05/16 06:08:29;;;;;;;32.90;9.18;;;11.30;92.50;;;;;;4979110;28;20159;-70
2021/05/16 06:10:55;;;;;;;29.50;8.63;;;11.30;92.50;;;;;;4986686;28;20035;-69
2021/05/16 06:13:20;;;;;;;30.88;9.20;;;11.40;92.80;;;;;;4984700;28;20018;-69
2021/05/16 06:15:46;;;;;;;32.30;8.98;;;11.50;92.60;;;;;;4983720;28;20023;-69
2021/05/16 06:18:11;;;;;;;27.83;8.55;;;11.50;92.40;;;;;;4984913;28;20027;-70
2021/05/16 06:20:37;;;;;;;24.63;7.55;;;11.60;92.30;;;;;;4985560;28;20038;-69
2021/05/16 06:23:04;;;;;;;32.13;8.05;;;11.60;92.30;;;;;;4978621;28;20395;-70
2021/05/16 06:25:30;;;;;;;27.50;7.43;;;11.60;92.40;;;;;;4986520;28;20054;-69
2021/05/16 06:27:59;;;;;;;25.27;9.00;;;11.60;92.30;;;;;;4981412;28;20469;-69
2021/05/16 06:30:29;;;;;;;30.65;9.70;;;11.80;92.40;;;;;;4984634;28;20025;-68
2021/05/16 06:32:55;;;;;;;29.30;9.00;;;12.00;92.10;;;;;;4987253;28;20030;-70
2021/05/16 06:35:20;;;;;;;30.38;8.75;;;12.10;92.00;;;;;;4986625;28;20033;-69
2021/05/16 06:37:46;;;;;;;30.40;8.93;;;12.20;91.90;;;;;;4989641;28;20569;-70
2021/05/16 06:40:13;;;;;;;31.85;9.00;;;12.20;91.60;;;;;;4990983;28;20038;-69
2021/05/16 06:42:39;;;;;;;32.95;9.15;;;12.20;91.30;;;;;;4986620;28;20019;-69
2021/05/16 06:45:06;;;;;;;25.73;8.20;;;12.20;91.20;;;;;;4987544;28;20026;-70
2021/05/16 06:47:32;;;;;;;20.98;7.72;;;12.20;91.20;;;;;;4991474;28;20040;-69
2021/05/16 06:49:57;;;;;;;26.67;9.27;;;12.20;91.20;;;;;;4979496;28;20455;-69
2021/05/16 06:52:23;;;;;;;26.85;7.95;;;12.20;91.10;;;;;;4983074;28;20050;-69
2021/05/16 06:54:49;;;;;;;27.95;9.88;;;12.20;91.20;;;;;;4988559;28;20083;-68
2021/05/16 06:57:18;;;;;;;25.15;8.00;;;12.20;91.20;;;;;;4985111;28;20030;-69
2021/05/16 06:59:45;;;;;;;19.90;7.53;;;12.30;91.10;;;;;;5010661;28;20050;-70
2021/05/16 07:02:11;;;;;;;26.50;7.68;;;12.40;91.10;;;;;;4981307;28;20085;-69
2021/05/16 07:04:36;;;;;;;23.40;7.55;;;12.50;90.90;;;;;;4978553;28;20058;-68
2021/05/16 07:07:02;;;;;;;24.98;7.07;;;12.60;90.70;;;;;;4986547;28;20056;-69
2021/05/16 07:09:28;;;;;;;29.70;7.93;;;12.70;90.70;;;;;;4978441;28;20114;-69
2021/05/16 07:11:54;;;;;;;29.48;9.23;;;12.80;90.70;;;;;;4982045;28;20101;-69
2021/05/16 07:14:19;;;;;;;25.48;10.00;;;12.90;90.60;;;;;;4974207;28;20459;-69
2021/05/16 07:16:45;;;;;;;30.77;11.02;;;13.00;90.50;;;;;;4973773;28;20472;-69
2021/05/16 07:19:10;;;;;;;32.65;11.13;;;13.10;90.30;;;;;;4975988;28;20040;-69
2021/05/16 07:21:36;;;;;;;31.85;11.77;;;13.20;90.20;;;;;;4977370;28;20073;-69
2021/05/16 07:24:02;;;;;;;28.63;11.98;;;13.30;89.70;;;;;;4991143;28;20030;-69
2021/05/16 07:26:28;;;;;;;28.50;11.40;;;13.30;89.20;;;;;;4992025;28;20497;-69
2021/05/16 07:28:53;;;;;;;29.02;12.00;;;13.30;88.70;;;;;;4987893;28;20027;-69
2021/05/16 07:31:19;;;;;;;31.98;12.40;;;13.40;88.90;;;;;;4986617;28;20178;-69
2021/05/16 07:33:45;;;;;;;29.42;11.13;;;13.40;88.20;;;;;;4991490;28;20026;-68
2021/05/16 07:36:10;;;;;;;32.25;12.05;;;13.40;88.60;;;;;;4991296;28;20039;-68
2021/05/16 07:38:36;;;;;;;37.53;12.70;;;13.50;88.20;;;;;;4988447;28;20026;-70
2021/05/16 07:41:02;;;;;;;31.70;12.18;;;13.60;87.60;;;;;;4987723;28;20033;-69
2021/05/16 07:43:28;;;;;;;28.20;10.95;;;13.60;87.60;;;;;;4984284;28;20037;-69
2021/05/16 07:45:54;;;;;;;31.30;12.20;;;13.80;87.60;;;;;;4983449;28;20392;-68
2021/05/16 07:48:28;;;;;;;25.80;12.18;;;13.80;87.10;;;;;;4988946;28;20041;-69
2021/05/16 07:50:54;;;;;;;35.30;14.57;;;13.80;86.90;;;;;;4983195;28;20050;-70
2021/05/16 07:53:19;;;;;;;27.92;13.52;;;13.80;86.50;;;;;;4985221;28;20023;-69
2021/05/16 07:55:45;;;;;;;31.98;14.45;;;13.90;87.00;;;;;;4982071;28;20125;-70
2021/05/16 08:01:08;;;;;;;31.15;13.80;;;13.90;85.30;;;;;;4984662;28;20034;-70
2021/05/16 08:03:33;;;;;;;36.63;14.95;;;13.90;85.50;;;;;;4991400;28;20053;-69
2021/05/16 08:05:59;;;;;;;32.40;15.35;;;13.80;85.00;;;;;;4991593;28;20103;-69
2021/05/16 08:08:27;;;;;;;36.13;16.35;;;13.80;84.90;;;;;;4988506;28;20027;-69
2021/05/16 08:10:52;;;;;;;38.15;16.65;;;13.80;85.20;;;;;;4984849;28;20026;-69
2021/05/16 08:13:18;;;;;;;28.75;15.70;;;13.80;85.00;;;;;;4987261;28;20481;-67
2021/05/16 08:15:44;;;;;;;39.10;17.15;;;14.00;85.40;;;;;;4983794;28;20060;-69
2021/05/16 08:18:10;;;;;;;31.55;16.38;;;14.10;84.40;;;;;;4992556;28;20030;-69
2021/05/16 08:20:36;;;;;;;32.17;16.70;;;14.20;84.00;;;;;;4988621;28;20025;-70
2021/05/16 08:23:02;;;;;;;38.00;16.42;;;14.30;83.70;;;;;;4995875;28;20022;-69
2021/05/16 08:25:27;;;;;;;32.85;15.43;;;14.30;83.40;;;;;;4988949;28;20023;-69
2021/05/16 08:27:56;;;;;;;31.80;15.10;;;14.20;82.70;;;;;;4989200;28;20026;-69
2021/05/16 08:30:21;;;;;;;38.15;15.48;;;14.10;82.80;;;;;;4991292;28;20022;-68
2021/05/16 08:32:48;;;;;;;23.92;13.63;;;14.10;82.70;;;;;;4984684;28;20042;-68
2021/05/16 08:35:16;;;;;;;26.73;12.60;;;14.10;82.90;;;;;;4990654;28;20469;-70
2021/05/16 08:37:42;;;;;;;27.88;12.80;;;14.20;83.20;;;;;;4982726;28;20022;-67
2021/05/16 08:40:09;;;;;;;31.85;13.10;;;14.40;83.20;;;;;;4979847;28;20031;-67
2021/05/16 08:42:35;;;;;;;30.20;12.63;;;14.60;82.50;;;;;;4992051;28;20096;-67
2021/05/16 08:45:02;;;;;;;29.65;12.85;;;14.80;81.20;;;;;;4991034;28;20030;-67
2021/05/16 08:47:29;;;;;;;20.30;10.32;;;14.90;82.20;;;;;;4985499;28;20027;-67
2021/05/16 08:49:55;;;;;;;29.38;12.38;;;15.10;81.10;;;;;;4987139;28;20076;-67
2021/05/16 08:52:20;;;;;;;27.02;10.45;;;15.10;79.80;;;;;;4987384;28;20031;-68
2021/05/16 08:54:52;;;;;;;26.88;11.20;;;15.20;79.90;;;;;;4990150;28;20171;-68
2021/05/16 08:57:18;;;;;;;20.95;8.93;;;15.40;79.20;;;;;;4986559;28;20160;-68
2021/05/16 09:00:13;;;;;;;25.95;9.13;;;15.40;77.20;;;;;;4982102;28;20062;-68
2021/05/16 09:02:59;;;;;;;23.73;9.25;;;15.40;77.10;;;;;;4986597;28;20034;-67
2021/05/16 09:05:27;;;;;;;28.33;8.73;;;15.50;77.60;;;;;;4990894;28;20396;-67
2021/05/16 09:08:13;;;;;;;18.98;7.55;;;15.60;77.50;;;;;;4990274;28;20037;-67
2021/05/16 09:10:44;;;;;;;24.80;7.22;;;15.80;76.50;;;;;;4983543;28;20481;-67
2021/05/16 09:13:11;;;;;;;19.77;7.32;;;15.80;76.60;;;;;;4979741;28;20377;-68
2021/05/16 09:15:37;;;;;;;16.13;4.45;;;15.80;76.00;;;;;;4984491;28;20027;-68
2021/05/16 09:18:03;;;;;;;14.60;4.97;;;15.80;75.20;;;;;;4990048;28;20553;-68
2021/05/16 09:20:28;;;;;;;13.13;4.45;;;15.70;75.30;;;;;;4974382;28;20030;-68
2021/05/16 09:22:54;;;;;;;13.27;3.85;;;15.70;75.30;;;;;;4990876;28;20380;-69
2021/05/16 09:25:31;;;;;;;13.95;4.65;;;15.80;75.30;;;;;;4987835;28;20037;-69
2021/05/16 09:28:13;;;;;;;15.65;4.25;;;15.90;74.50;;;;;;4990132;28;20050;-67
2021/05/16 09:30:41;;;;;;;;;;;16.00;74.10;;;;;;4982756;28;20018;-67
2021/05/16 09:33:09;;;;;;;17.13;4.35;;;16.00;73.00;;;;;;4989361;28;19910;-67
2021/05/16 09:35:41;;;;;;;14.07;3.90;;;15.80;73.20;;;;;;4985244;28;20030;-68
2021/05/16 09:38:13;;;;;;;11.67;2.30;;;15.60;74.00;;;;;;4982922;28;20036;-68
2021/05/16 09:40:48;;;;;;;23.23;4.18;;;15.50;73.10;;;;;;4975238;28;20660;-68
2021/05/16 09:43:18;;;;;;;14.68;3.65;;;15.20;73.30;;;;;;5019964;28;20030;-68
2021/05/16 09:45:48;;;;;;;14.25;3.80;;;15.20;75.00;;;;;;5087432;28;20496;-68
2021/05/16 09:48:29;;;;;;;17.60;3.78;;;15.30;74.70;;;;;;4980943;28;20037;-68
2021/05/16 09:51:24;;;;;;;22.75;5.00;;;15.40;74.30;;;;;;4972045;28;20015;-68
2021/05/16 09:54:04;;;;;;;14.35;2.92;;;15.40;74.60;;;;;;4987813;28;20030;-68
2021/05/16 09:56:32;;;;;;;10.43;2.72;;;15.70;75.30;;;;;;4981049;28;20031;-68
2021/05/16 09:59:04;;;;;;;17.90;2.15;;;15.90;74.00;;;;;;4988130;28;20026;-68
2021/05/16 10:01:31;;;;;;;11.32;2.08;;;16.10;73.70;;;;;;4981957;28;20049;-68
2021/05/16 10:03:59;;;;;;;13.98;2.17;;;16.40;72.90;;;;;;4986191;28;20137;-68
2021/05/16 10:06:27;;;;;;;13.98;2.78;;;16.40;72.80;;;;;;4985558;28;20022;-68
2021/05/16 10:08:53;;;;;;;8.25;1.75;;;16.40;70.80;;;;;;4989873;28;20515;-68
2021/05/16 10:11:22;;;;;;;14.45;1.80;;;16.40;71.40;;;;;;4977612;28;20057;-68
2021/05/16 10:14:11;;;;;;;20.55;2.42;;;16.70;72.20;;;;;;4978468;28;20036;-68
2021/05/16 10:16:45;;;;;;;15.55;2.00;;;17.20;70.80;;;;;;4974869;28;20035;-68
2021/05/16 10:19:19;;;;;;;11.60;1.70;;;17.40;68.20;;;;;;4984222;28;20121;-68
2021/05/16 10:21:45;;;;;;;11.88;2.33;;;17.60;67.10;;;;;;4987063;28;20041;-68
2021/05/16 10:24:13;;;;;;;7.55;1.65;;;17.60;67.30;;;;;;4989888;28;20447;-68
2021/05/16 10:26:41;;;;;;;9.07;1.52;;;17.60;66.30;;;;;;4976655;28;20052;-67
2021/05/16 10:29:12;;;;;;;7.70;1.45;;;17.50;65.20;;;;;;4980821;28;20031;-68
2021/05/16 10:31:46;;;;;;;7.68;1.40;;;17.60;65.00;;;;;;4971351;28;20507;-68
2021/05/16 10:34:23;;;;;;;6.82;1.42;;;17.80;65.20;;;;;;4978363;28;20030;-68
2021/05/16 10:36:49;;;;;;;10.60;1.55;;;18.00;64.10;;;;;;4990321;28;20069;-68
2021/05/16 10:39:33;;;;;;;11.02;1.77;;;18.10;63.50;;;;;;4986925;28;20057;-68
2021/05/16 10:42:21;;;;;;;9.70;2.22;;;18.20;63.00;;;;;;4976959;28;20042;-67
2021/05/16 10:45:02;;;;;;;9.95;1.75;;;18.40;62.60;;;;;;4990899;28;20426;-68
2021/05/16 10:47:43;;;;;;;11.10;1.60;;;18.50;61.70;;;;;;4977327;28;20026;-67
2021/05/16 10:50:18;;;;;;;7.22;1.20;;;18.50;61.50;;;;;;4987700;28;20729;-68
2021/05/16 10:53:22;;;;;;;10.60;1.60;;;18.50;61.50;;;;;;4988824;28;20034;-67
2021/05/16 10:55:51;;;;;;;9.95;1.25;;;18.70;61.70;;;;;;4978156;28;20037;-69
2021/05/16 10:58:32;;;;;;;7.57;1.50;;;19.00;61.20;;;;;;4980039;28;20157;-69
2021/05/16 11:01:31;;;;;;;8.05;1.30;;;19.10;59.40;;;;;;5003932;28;20492;-68
2021/05/16 11:04:01;;;;;;;11.00;1.58;;;19.00;59.30;;;;;;5004908;28;20065;-68
2021/05/16 11:06:39;;;;;;;9.68;1.10;;;19.00;59.90;;;;;;4985451;28;20110;-68
2021/05/16 11:09:07;;;;;;;10.57;1.42;;;19.10;60.00;;;;;;4988822;28;20517;-69
2021/05/16 11:11:40;;;;;;;4.72;0.80;;;19.10;59.70;;;;;;4981242;28;20034;-69
2021/05/16 11:14:20;;;;;;;8.55;0.90;;;19.10;59.40;;;;;;4983384;28;20168;-69
2021/05/16 11:17:00;;;;;;;11.60;1.58;;;19.10;58.40;;;;;;4980266;28;20168;-69
2021/05/16 11:19:36;;;;;;;9.35;0.85;;;19.20;59.60;;;;;;4981760;28;20491;-70
2021/05/16 11:22:11;;;;;;;7.97;1.00;;;19.30;59.40;;;;;;4981001;28;20053;-69
2021/05/16 11:24:39;;;;;;;7.93;1.05;;;19.40;58.30;;;;;;4979885;28;20042;-69
2021/05/16 11:27:19;;;;;;;8.77;1.33;;;19.20;57.50;;;;;;4982936;28;20041;-69
2021/05/16 11:29:49;;;;;;;7.45;1.38;;;19.10;56.70;;;;;;4993103;28;20041;-69
2021/05/16 11:32:21;;;;;;;10.88;1.30;;;18.70;57.60;;;;;;4982100;28;20054;-69
2021/05/16 11:35:00;;;;;;;9.75;1.45;;;18.40;58.40;;;;;;4974052;28;20106;-69
2021/05/16 11:37:25;;;;;;;8.00;1.20;;;17.90;59.90;;;;;;4985517;28;20026;-69
2021/05/16 11:39:51;;;;;;;8.50;1.25;;;17.40;61.90;;;;;;4987858;28;20038;-69
2021/05/16 11:42:32;;;;;;;12.02;2.20;;;17.00;62.70;;;;;;4977408;28;20110;-70
2021/05/16 11:44:58;;;;;;;10.48;1.50;;;16.50;64.20;;;;;;4992041;28;20316;-70
2021/05/16 11:47:36;;;;;;;7.50;1.30;;;16.20;66.10;;;;;;4990634;28;20027;-69
2021/05/16 11:50:04;;;;;;;9.05;1.35;;;15.90;68.20;;;;;;4992681;28;20030;-71
2021/05/16 11:52:29;;;;;;;13.65;2.90;;;15.60;69.90;;;;;;4990723;28;20365;-70
2021/05/16 11:55:02;;;;;;;7.07;1.25;;;15.70;71.90;;;;;;5027246;28;20030;-69
2021/05/16 11:57:28;;;;;;;10.13;1.65;;;15.90;71.90;;;;;;4987859;28;20023;-68
2021/05/16 11:59:53;;;;;;;14.40;1.52;;;16.00;72.10;;;;;;4990616;28;20463;-69
2021/05/16 12:02:19;;;;;;;10.18;1.45;;;16.10;72.70;;;;;;4986827;28;20061;-69
2021/05/16 12:04:44;;;;;;;9.95;1.58;;;16.20;72.80;;;;;;4989580;28;20144;-69
2021/05/16 12:07:10;;;;;;;12.77;3.17;;;16.40;72.50;;;;;;4987407;28;20478;-68
2021/05/16 12:09:41;;;;;;;8.82;1.85;;;16.50;71.80;;;;;;4982369;28;20059;-69
2021/05/16 12:12:18;;;;;;;9.13;1.33;;;16.40;72.40;;;;;;4987848;28;20555;-68
2021/05/16 12:14:45;;;;;;;13.20;1.40;;;16.50;73.20;;;;;;4980891;28;20057;-68
2021/05/16 12:17:13;;;;;;;8.73;1.00;;;16.80;72.30;;;;;;4988627;28;20072;-68
2021/05/16 12:19:39;;;;;;;9.13;1.23;;;17.10;70.70;;;;;;4981453;28;20030;-68
2021/05/16 12:22:07;;;;;;;7.57;1.08;;;17.30;69.30;;;;;;4987323;28;20052;-68
2021/05/16 12:24:42;;;;;;;9.48;1.63;;;17.40;68.60;;;;;;4984624;28;20041;-69
2021/05/16 12:27:10;;;;;;;9.85;1.40;;;17.20;68.00;;;;;;4988258;28;20381;-69
2021/05/16 12:29:37;;;;;;;13.52;1.25;;;17.20;68.00;;;;;;4975109;28;20057;-68
2021/05/16 12:32:03;;;;;;;7.10;1.02;;;17.10;67.60;;;;;;4991578;28;20092;-69
2021/05/16 12:34:30;;;;;;;11.07;1.42;;;16.90;67.90;;;;;;4990225;28;20034;-68
2021/05/16 12:37:03;;;;;;;9.13;1.48;;;16.80;67.90;;;;;;4991405;28;20179;-69
2021/05/16 12:39:43;;;;;;;7.80;1.10;;;16.70;68.50;;;;;;4998538;28;20084;-69
2021/05/16 12:42:28;;;;;;;8.50;1.27;;;16.50;69.00;;;;;;4974709;28;20388;-69